Leon Corners, Illinois
Current Conditions -  °F | °C
As of 6:35 PM on Sunday 25 Jan 2015 (Local Time) from KSQI Reporting Station
Clear Clear  
Wind Chill: 15°   Ceiling: Unl
Heat Index: 23°   Visibility: 10mi
Dew Point: 12°   Wind: 7mph
Humidity: 63%   Direction: 30°NNE
Pressure: 30"   Gusts: NA
Location:  41.5909°N, 89.9498°W
Report Text: KSQI 260035Z AUTO 03006KT 10SM CLR M05/M11 A3000 RMK AO1
Loading
Personal Weather Stations






























Interactive Weather Map New forecast layout! Learn more

10-Day Weather Forecast

Advertisements
Track Severe Weather on mobile